sensor_id;sensor_type;location;lat;lon;timestamp;pressure;altitude;pressure_sealevel;temperature;humidity
11413;BME280;5762;43.256;26.960;2022-10-17T00:07:33;101094.22;;;7.34;100.00
11413;BME280;5762;43.256;26.960;2022-10-17T00:10:11;101091.19;;;7.30;100.00
11413;BME280;5762;43.256;26.960;2022-10-17T00:15:17;101102.77;;;7.14;100.00
11413;BME280;5762;43.256;26.960;2022-10-17T00:17:50;101098.78;;;7.02;100.00
11413;BME280;5762;43.256;26.960;2022-10-17T00:22:55;101110.12;;;6.76;100.00
11413;BME280;5762;43.256;26.960;2022-10-17T00:25:24;101099.50;;;6.55;100.00
11413;BME280;5762;43.256;26.960;2022-10-17T00:27:54;101103.34;;;6.33;100.00
11413;BME280;5762;43.256;26.960;2022-10-17T00:30:24;101091.92;;;6.15;100.00
11413;BME280;5762;43.256;26.960;2022-10-17T00:37:57;101104.74;;;5.66;100.00
11413;BME280;5762;43.256;26.960;2022-10-17T00:40:31;101109.52;;;5.64;100.00
11413;BME280;5762;43.256;26.960;2022-10-17T00:43:00;101104.22;;;5.66;100.00
11413;BME280;5762;43.256;26.960;2022-10-17T00:45:30;101101.00;;;5.67;100.00
11413;BME280;5762;43.256;26.960;2022-10-17T00:48:02;101103.11;;;5.65;100.00
11413;BME280;5762;43.256;26.960;2022-10-17T00:53:03;101107.77;;;5.58;100.00
11413;BME280;5762;43.256;26.960;2022-10-17T00:55:34;101108.29;;;5.46;100.00
11413;BME280;5762;43.256;26.960;2022-10-17T00:58:03;101104.39;;;5.51;100.00
11413;BME280;5762;43.256;26.960;2022-10-17T01:00:45;101104.03;;;5.47;100.00
11413;BME280;5762;43.256;26.960;2022-10-17T01:03:13;101106.36;;;5.55;100.00
11413;BME280;5762;43.256;26.960;2022-10-17T01:05:52;101102.33;;;5.55;100.00
11413;BME280;5762;43.256;26.960;2022-10-17T01:08:24;101099.02;;;5.62;100.00
11413;BME280;5762;43.256;26.960;2022-10-17T01:23:47;101115.67;;;5.73;100.00
11413;BME280;5762;43.256;26.960;2022-10-17T01:31:19;101141.88;;;5.69;100.00
11413;BME280;5762;43.256;26.960;2022-10-17T01:38:52;101120.31;;;5.87;100.00
11413;BME280;5762;43.256;26.960;2022-10-17T01:41:26;101110.27;;;5.94;100.00
11413;BME280;5762;43.256;26.960;2022-10-17T01:44:03;101115.70;;;6.09;100.00
11413;BME280;5762;43.256;26.960;2022-10-17T01:46:34;101117.87;;;6.21;100.00
11413;BME280;5762;43.256;26.960;2022-10-17T01:49:03;101126.55;;;6.25;100.00
11413;BME280;5762;43.256;26.960;2022-10-17T02:02:12;101126.70;;;6.19;100.00
11413;BME280;5762;43.256;26.960;2022-10-17T02:04:42;101122.38;;;6.44;100.00
11413;BME280;5762;43.256;26.960;2022-10-17T02:09:52;101120.92;;;7.69;100.00
11413;BME280;5762;43.256;26.960;2022-10-17T02:30:08;101164.88;;;5.65;100.00
11413;BME280;5762;43.256;26.960;2022-10-17T02:35:16;101160.16;;;5.69;100.00
11413;BME280;5762;43.256;26.960;2022-10-17T02:37:48;101162.39;;;5.72;100.00
11413;BME280;5762;43.256;26.960;2022-10-17T02:40:23;101161.14;;;5.66;100.00
11413;BME280;5762;43.256;26.960;2022-10-17T02:42:53;101161.38;;;5.64;100.00
11413;BME280;5762;43.256;26.960;2022-10-17T02:59:39;101169.63;;;6.28;100.00
11413;BME280;5762;43.256;26.960;2022-10-17T03:02:23;101168.86;;;6.30;100.00
11413;BME280;5762;43.256;26.960;2022-10-17T03:10:36;101170.17;;;6.16;100.00
11413;BME280;5762;43.256;26.960;2022-10-17T03:45:30;101200.08;;;5.54;100.00
11413;BME280;5762;43.256;26.960;2022-10-17T03:48:29;101197.80;;;5.19;100.00
11413;BME280;5762;43.256;26.960;2022-10-17T04:03:29;101197.00;;;5.30;100.00
11413;BME280;5762;43.256;26.960;2022-10-17T04:17:40;101200.05;;;5.33;100.00
11413;BME280;5762;43.256;26.960;2022-10-17T04:31:01;101212.73;;;4.69;100.00
11413;BME280;5762;43.256;26.960;2022-10-17T04:36:14;101234.70;;;4.25;100.00
11413;BME280;5762;43.256;26.960;2022-10-17T04:41:59;101258.35;;;4.10;100.00
11413;BME280;5762;43.256;26.960;2022-10-17T04:47:24;101259.73;;;4.03;100.00
11413;BME280;5762;43.256;26.960;2022-10-17T04:52:26;101276.59;;;4.20;100.00
11413;BME280;5762;43.256;26.960;2022-10-17T04:54:59;101276.33;;;4.28;100.00
11413;BME280;5762;43.256;26.960;2022-10-17T04:57:32;101282.33;;;4.39;100.00
11413;BME280;5762;43.256;26.960;2022-10-17T05:05:55;101270.61;;;4.67;100.00
11413;BME280;5762;43.256;26.960;2022-10-17T05:08:32;101275.17;;;4.76;100.00
11413;BME280;5762;43.256;26.960;2022-10-17T05:14:33;101288.36;;;4.96;100.00
11413;BME280;5762;43.256;26.960;2022-10-17T05:17:03;101280.47;;;4.83;100.00
11413;BME280;5762;43.256;26.960;2022-10-17T05:22:30;101283.67;;;5.10;100.00
11413;BME280;5762;43.256;26.960;2022-10-17T05:27:52;101279.53;;;5.44;100.00
11413;BME280;5762;43.256;26.960;2022-10-17T05:30:35;101281.16;;;5.54;100.00
11413;BME280;5762;43.256;26.960;2022-10-17T05:33:28;101282.69;;;5.61;100.00
11413;BME280;5762;43.256;26.960;2022-10-17T05:36:14;101281.86;;;5.70;100.00
11413;BME280;5762;43.256;26.960;2022-10-17T05:42:02;101275.98;;;5.91;100.00
11413;BME280;5762;43.256;26.960;2022-10-17T05:44:48;101290.31;;;6.27;100.00
11413;BME280;5762;43.256;26.960;2022-10-17T05:53:05;101294.61;;;6.60;100.00
11413;BME280;5762;43.256;26.960;2022-10-17T05:58:24;101290.77;;;6.80;100.00
11413;BME280;5762;43.256;26.960;2022-10-17T06:03:29;101302.95;;;6.96;100.00
11413;BME280;5762;43.256;26.960;2022-10-17T06:08:46;101307.91;;;7.25;100.00
11413;BME280;5762;43.256;26.960;2022-10-17T06:27:13;101281.56;;;8.85;100.00
11413;BME280;5762;43.256;26.960;2022-10-17T06:55:18;101315.69;;;10.32;100.00
11413;BME280;5762;43.256;26.960;2022-10-17T07:12:05;101343.66;;;8.85;100.00
11413;BME280;5762;43.256;26.960;2022-10-17T07:57:48;101342.91;;;12.12;100.00
11413;BME280;5762;43.256;26.960;2022-10-17T08:00:18;101339.91;;;12.49;100.00
11413;BME280;5762;43.256;26.960;2022-10-17T08:03:06;101342.37;;;12.60;100.00
11413;BME280;5762;43.256;26.960;2022-10-17T08:05:36;101338.84;;;12.55;100.00
11413;BME280;5762;43.256;26.960;2022-10-17T08:08:06;101336.39;;;12.68;100.00
11413;BME280;5762;43.256;26.960;2022-10-17T08:10:41;101336.07;;;13.00;100.00
11413;BME280;5762;43.256;26.960;2022-10-17T08:13:11;101334.42;;;13.12;100.00
11413;BME280;5762;43.256;26.960;2022-10-17T08:15:58;101331.38;;;13.31;100.00
11413;BME280;5762;43.256;26.960;2022-10-17T08:24:08;101311.60;;;13.75;100.00
11413;BME280;5762;43.256;26.960;2022-10-17T08:29:28;101312.17;;;14.14;100.00
11413;BME280;5762;43.256;26.960;2022-10-17T08:34:37;101313.94;;;14.65;100.00
11413;BME280;5762;43.256;26.960;2022-10-17T08:39:59;101311.19;;;14.94;100.00
11413;BME280;5762;43.256;26.960;2022-10-17T08:47:47;101313.55;;;15.51;100.00
11413;BME280;5762;43.256;26.960;2022-10-17T08:52:57;101306.17;;;15.72;100.00
11413;BME280;5762;43.256;26.960;2022-10-17T09:03:26;101288.88;;;16.31;100.00
11413;BME280;5762;43.256;26.960;2022-10-17T09:14:04;101303.92;;;17.48;100.00
11413;BME280;5762;43.256;26.960;2022-10-17T09:18:44;101305.06;;;17.72;100.00
11413;BME280;5762;43.256;26.960;2022-10-17T09:23:44;101312.20;;;17.84;100.00
11413;BME280;5762;43.256;26.960;2022-10-17T09:26:11;101314.97;;;17.57;100.00
11413;BME280;5762;43.256;26.960;2022-10-17T09:28:41;101312.95;;;17.35;100.00
11413;BME280;5762;43.256;26.960;2022-10-17T09:33:43;101301.89;;;17.54;100.00
11413;BME280;5762;43.256;26.960;2022-10-17T09:38:44;101311.38;;;17.84;100.00
11413;BME280;5762;43.256;26.960;2022-10-17T09:48:42;101296.25;;;17.61;100.00
11413;BME280;5762;43.256;26.960;2022-10-17T09:51:10;101301.10;;;17.78;100.00
11413;BME280;5762;43.256;26.960;2022-10-17T09:53:41;101284.41;;;17.77;100.00
11413;BME280;5762;43.256;26.960;2022-10-17T09:56:11;101298.36;;;17.78;100.00
11413;BME280;5762;43.256;26.960;2022-10-17T09:58:40;101295.58;;;18.03;100.00
11413;BME280;5762;43.256;26.960;2022-10-17T10:03:41;101283.75;;;18.05;100.00
11413;BME280;5762;43.256;26.960;2022-10-17T10:11:09;101277.73;;;17.94;100.00
11413;BME280;5762;43.256;26.960;2022-10-17T10:13:38;101282.94;;;18.04;100.00
11413;BME280;5762;43.256;26.960;2022-10-17T10:18:37;101271.56;;;18.22;100.00
11413;BME280;5762;43.256;26.960;2022-10-17T10:23:40;101269.84;;;18.57;100.00
11413;BME280;5762;43.256;26.960;2022-10-17T10:28:38;101264.61;;;18.58;100.00
11413;BME280;5762;43.256;26.960;2022-10-17T10:31:07;101268.48;;;18.68;100.00
11413;BME280;5762;43.256;26.960;2022-10-17T10:33:39;101264.26;;;18.62;100.00
11413;BME280;5762;43.256;26.960;2022-10-17T10:36:07;101257.00;;;18.55;100.00
11413;BME280;5762;43.256;26.960;2022-10-17T10:38:37;101258.52;;;18.61;100.00
11413;BME280;5762;43.256;26.960;2022-10-17T10:41:07;101260.14;;;18.62;99.12
11413;BME280;5762;43.256;26.960;2022-10-17T10:46:05;101249.17;;;18.62;99.52
11413;BME280;5762;43.256;26.960;2022-10-17T10:48:35;101249.48;;;18.61;98.04
11413;BME280;5762;43.256;26.960;2022-10-17T10:53:37;101243.16;;;19.20;97.61
11413;BME280;5762;43.256;26.960;2022-10-17T11:01:04;101247.97;;;18.86;94.06
11413;BME280;5762;43.256;26.960;2022-10-17T11:13:31;101239.58;;;18.62;93.52
11413;BME280;5762;43.256;26.960;2022-10-17T11:18:33;101234.02;;;18.85;93.09
11413;BME280;5762;43.256;26.960;2022-10-17T11:21:03;101232.78;;;18.99;91.62
11413;BME280;5762;43.256;26.960;2022-10-17T11:25:58;101231.86;;;18.93;89.71
11413;BME280;5762;43.256;26.960;2022-10-17T11:28:27;101223.32;;;18.94;91.16
11413;BME280;5762;43.256;26.960;2022-10-17T11:35:58;101213.54;;;18.91;89.72
11413;BME280;5762;43.256;26.960;2022-10-17T11:38:30;101216.56;;;19.00;88.81
11413;BME280;5762;43.256;26.960;2022-10-17T11:40:56;101217.27;;;18.95;89.50
11413;BME280;5762;43.256;26.960;2022-10-17T11:45:58;101210.63;;;18.87;89.12
11413;BME280;5762;43.256;26.960;2022-10-17T11:48:28;101205.83;;;19.10;88.01
11413;BME280;5762;43.256;26.960;2022-10-17T11:50:59;101201.78;;;18.99;87.92
11413;BME280;5762;43.256;26.960;2022-10-17T11:53:25;101206.31;;;19.12;88.44
11413;BME280;5762;43.256;26.960;2022-10-17T11:55:54;101212.61;;;19.13;88.35
11413;BME280;5762;43.256;26.960;2022-10-17T12:15:54;101197.76;;;19.51;85.94
11413;BME280;5762;43.256;26.960;2022-10-17T12:18:23;101191.58;;;19.45;86.37
11413;BME280;5762;43.256;26.960;2022-10-17T12:23:25;101189.98;;;19.35;86.93
11413;BME280;5762;43.256;26.960;2022-10-17T12:25:55;101193.14;;;19.40;87.62
11413;BME280;5762;43.256;26.960;2022-10-17T12:38:23;101202.06;;;19.71;84.64
11413;BME280;5762;43.256;26.960;2022-10-17T12:40:52;101206.55;;;19.76;84.36
11413;BME280;5762;43.256;26.960;2022-10-17T12:53:21;101207.79;;;19.64;83.55
11413;BME280;5762;43.256;26.960;2022-10-17T12:55:57;101199.70;;;19.59;83.62
11413;BME280;5762;43.256;26.960;2022-10-17T12:58:20;101200.19;;;19.61;83.43
11413;BME280;5762;43.256;26.960;2022-10-17T13:00:51;101196.08;;;19.69;84.73
11413;BME280;5762;43.256;26.960;2022-10-17T13:03:21;101199.69;;;19.76;82.96
11413;BME280;5762;43.256;26.960;2022-10-17T13:08:20;101194.46;;;19.68;81.29
11413;BME280;5762;43.256;26.960;2022-10-17T13:10:49;101190.42;;;19.74;82.64
11413;BME280;5762;43.256;26.960;2022-10-17T13:13:21;101196.53;;;19.80;81.38
11413;BME280;5762;43.256;26.960;2022-10-17T13:18:21;101206.47;;;19.79;79.71
11413;BME280;5762;43.256;26.960;2022-10-17T13:25:58;101204.44;;;20.07;78.65
11413;BME280;5762;43.256;26.960;2022-10-17T13:28:17;101192.73;;;19.96;80.03
11413;BME280;5762;43.256;26.960;2022-10-17T13:30:46;101198.42;;;20.14;79.35
11413;BME280;5762;43.256;26.960;2022-10-17T13:33:17;101205.00;;;20.07;80.35
11413;BME280;5762;43.256;26.960;2022-10-17T13:35:45;101204.94;;;19.84;81.28
11413;BME280;5762;43.256;26.960;2022-10-17T13:38:14;101204.08;;;19.68;81.45
11413;BME280;5762;43.256;26.960;2022-10-17T13:40:44;101204.56;;;19.70;81.67
11413;BME280;5762;43.256;26.960;2022-10-17T13:43:15;101199.20;;;19.83;80.95
11413;BME280;5762;43.256;26.960;2022-10-17T13:50:42;101195.02;;;19.51;82.97
11413;BME280;5762;43.256;26.960;2022-10-17T13:53:18;101197.39;;;19.43;82.55
11413;BME280;5762;43.256;26.960;2022-10-17T13:58:14;101206.52;;;19.41;82.59
11413;BME280;5762;43.256;26.960;2022-10-17T14:00:43;101202.48;;;19.48;81.85
11413;BME280;5762;43.256;26.960;2022-10-17T14:03:12;101207.41;;;19.31;81.69
11413;BME280;5762;43.256;26.960;2022-10-17T14:08:14;101204.18;;;19.29;82.25
11413;BME280;5762;43.256;26.960;2022-10-17T14:10:43;101205.70;;;19.24;82.80
11413;BME280;5762;43.256;26.960;2022-10-17T14:13:18;101214.33;;;19.20;83.06
11413;BME280;5762;43.256;26.960;2022-10-17T14:18:14;101213.08;;;19.06;84.70
11413;BME280;5762;43.256;26.960;2022-10-17T14:20:44;101207.52;;;19.00;85.21
11413;BME280;5762;43.256;26.960;2022-10-17T14:25:40;101217.05;;;19.11;85.25
11413;BME280;5762;43.256;26.960;2022-10-17T14:35:38;101225.11;;;18.99;86.64
11413;BME280;5762;43.256;26.960;2022-10-17T14:38:07;101226.98;;;19.01;86.84
11413;BME280;5762;43.256;26.960;2022-10-17T14:40:36;101222.61;;;19.00;87.20
11413;BME280;5762;43.256;26.960;2022-10-17T14:45:36;101232.34;;;18.75;88.02
11413;BME280;5762;43.256;26.960;2022-10-17T14:50:34;101227.98;;;18.74;88.06
11413;BME280;5762;43.256;26.960;2022-10-17T14:53:05;101229.09;;;18.64;88.49
11413;BME280;5762;43.256;26.960;2022-10-17T14:55:33;100959.44;;;16.99;87.89
11413;BME280;5762;43.256;26.960;2022-10-17T15:00:32;101229.11;;;18.42;89.26
11413;BME280;5762;43.256;26.960;2022-10-17T15:03:04;101229.83;;;18.36;90.37
11413;BME280;5762;43.256;26.960;2022-10-17T15:05:33;101236.31;;;18.29;91.00
11413;BME280;5762;43.256;26.960;2022-10-17T15:08:02;101226.78;;;18.04;92.38
11413;BME280;5762;43.256;26.960;2022-10-17T15:10:33;101237.08;;;17.99;93.35
11413;BME280;5762;43.256;26.960;2022-10-17T15:13:01;101237.99;;;17.83;94.87
11413;BME280;5762;43.256;26.960;2022-10-17T15:15:31;101240.71;;;17.72;95.74
11413;BME280;5762;43.256;26.960;2022-10-17T15:18:00;101247.20;;;17.65;96.58
11413;BME280;5762;43.256;26.960;2022-10-17T15:20:30;101253.92;;;17.56;97.61
11413;BME280;5762;43.256;26.960;2022-10-17T15:23:00;101250.91;;;17.44;98.66
11413;BME280;5762;43.256;26.960;2022-10-17T15:25:29;101247.77;;;17.37;99.16
11413;BME280;5762;43.256;26.960;2022-10-17T15:27:59;101253.03;;;17.22;100.00
11413;BME280;5762;43.256;26.960;2022-10-17T15:30:29;101249.88;;;17.15;100.00
11413;BME280;5762;43.256;26.960;2022-10-17T15:32:58;101251.25;;;17.01;100.00
11413;BME280;5762;43.256;26.960;2022-10-17T15:35:27;101253.14;;;16.90;100.00
11413;BME280;5762;43.256;26.960;2022-10-17T15:37:56;101253.54;;;16.83;100.00
11413;BME280;5762;43.256;26.960;2022-10-17T15:40:27;101256.34;;;16.64;100.00
11413;BME280;5762;43.256;26.960;2022-10-17T15:42:56;101258.39;;;16.56;100.00
11413;BME280;5762;43.256;26.960;2022-10-17T15:45:27;101258.78;;;16.50;100.00
11413;BME280;5762;43.256;26.960;2022-10-17T15:47:59;101266.42;;;16.34;100.00
11413;BME280;5762;43.256;26.960;2022-10-17T15:50:26;101262.33;;;16.34;100.00
11413;BME280;5762;43.256;26.960;2022-10-17T15:52:55;101273.16;;;16.25;100.00
11413;BME280;5762;43.256;26.960;2022-10-17T15:55:24;101269.17;;;16.18;100.00
11413;BME280;5762;43.256;26.960;2022-10-17T15:57:54;101270.45;;;16.23;100.00
11413;BME280;5762;43.256;26.960;2022-10-17T16:00:23;101274.37;;;16.17;100.00
11413;BME280;5762;43.256;26.960;2022-10-17T16:02:52;101265.11;;;16.15;100.00
11413;BME280;5762;43.256;26.960;2022-10-17T16:05:23;101271.80;;;16.06;100.00
11413;BME280;5762;43.256;26.960;2022-10-17T16:07:52;101271.55;;;16.05;100.00
11413;BME280;5762;43.256;26.960;2022-10-17T16:10:21;101275.42;;;16.02;100.00
11413;BME280;5762;43.256;26.960;2022-10-17T16:12:50;101279.59;;;15.97;100.00
11413;BME280;5762;43.256;26.960;2022-10-17T16:15:21;101278.11;;;15.88;100.00
11413;BME280;5762;43.256;26.960;2022-10-17T16:17:50;101286.18;;;15.77;100.00
11413;BME280;5762;43.256;26.960;2022-10-17T16:20:19;101285.11;;;15.57;100.00
11413;BME280;5762;43.256;26.960;2022-10-17T16:22:49;101284.58;;;15.31;100.00
11413;BME280;5762;43.256;26.960;2022-10-17T16:25:20;101290.80;;;15.15;100.00
11413;BME280;5762;43.256;26.960;2022-10-17T16:27:49;101292.95;;;14.92;100.00
11413;BME280;5762;43.256;26.960;2022-10-17T16:30:18;101293.55;;;14.89;100.00
11413;BME280;5762;43.256;26.960;2022-10-17T16:32:48;101293.12;;;14.77;100.00
11413;BME280;5762;43.256;26.960;2022-10-17T16:35:19;101309.26;;;14.70;100.00
11413;BME280;5762;43.256;26.960;2022-10-17T16:37:46;101309.04;;;14.64;100.00
11413;BME280;5762;43.256;26.960;2022-10-17T16:40:15;101305.66;;;14.49;100.00
11413;BME280;5762;43.256;26.960;2022-10-17T16:42:44;101310.59;;;14.44;100.00
11413;BME280;5762;43.256;26.960;2022-10-17T16:47:43;101319.13;;;14.27;100.00
11413;BME280;5762;43.256;26.960;2022-10-17T16:50:13;101313.42;;;14.26;100.00
11413;BME280;5762;43.256;26.960;2022-10-17T16:52:42;101323.03;;;14.19;100.00
11413;BME280;5762;43.256;26.960;2022-10-17T16:55:11;101321.67;;;14.19;100.00
11413;BME280;5762;43.256;26.960;2022-10-17T16:57:42;101314.11;;;14.08;100.00
11413;BME280;5762;43.256;26.960;2022-10-17T17:00:10;101311.16;;;14.02;100.00
11413;BME280;5762;43.256;26.960;2022-10-17T17:02:40;101311.14;;;14.04;100.00
11413;BME280;5762;43.256;26.960;2022-10-17T17:05:09;101313.91;;;13.97;100.00
11413;BME280;5762;43.256;26.960;2022-10-17T17:07:41;101314.73;;;13.95;100.00
11413;BME280;5762;43.256;26.960;2022-10-17T17:10:10;101310.12;;;13.90;100.00
11413;BME280;5762;43.256;26.960;2022-10-17T17:12:39;101317.98;;;13.97;100.00
11413;BME280;5762;43.256;26.960;2022-10-17T17:15:08;101314.44;;;13.99;100.00
11413;BME280;5762;43.256;26.960;2022-10-17T17:17:37;101317.16;;;13.99;100.00
11413;BME280;5762;43.256;26.960;2022-10-17T17:20:06;101317.71;;;13.98;100.00
11413;BME280;5762;43.256;26.960;2022-10-17T17:22:35;101316.62;;;13.97;100.00
11413;BME280;5762;43.256;26.960;2022-10-17T17:25:04;101316.94;;;13.90;100.00
11413;BME280;5762;43.256;26.960;2022-10-17T17:27:33;101321.54;;;13.95;100.00
11413;BME280;5762;43.256;26.960;2022-10-17T17:30:03;101322.64;;;13.94;100.00
11413;BME280;5762;43.256;26.960;2022-10-17T17:32:32;101325.09;;;13.93;100.00
11413;BME280;5762;43.256;26.960;2022-10-17T17:35:03;101329.69;;;13.97;100.00
11413;BME280;5762;43.256;26.960;2022-10-17T17:37:32;101324.00;;;13.94;100.00
11413;BME280;5762;43.256;26.960;2022-10-17T17:40:02;101316.64;;;13.94;100.00
11413;BME280;5762;43.256;26.960;2022-10-17T17:42:31;101323.45;;;13.94;100.00
11413;BME280;5762;43.256;26.960;2022-10-17T17:45:00;101321.28;;;13.91;100.00
11413;BME280;5762;43.256;26.960;2022-10-17T17:47:29;101323.98;;;13.96;100.00
11413;BME280;5762;43.256;26.960;2022-10-17T17:49:58;101315.25;;;13.99;100.00
11413;BME280;5762;43.256;26.960;2022-10-17T17:52:28;101325.34;;;13.96;100.00
11413;BME280;5762;43.256;26.960;2022-10-17T17:54:57;101321.26;;;13.96;100.00
11413;BME280;5762;43.256;26.960;2022-10-17T17:59:56;101327.27;;;13.93;100.00
11413;BME280;5762;43.256;26.960;2022-10-17T18:02:25;101320.73;;;13.94;100.00
11413;BME280;5762;43.256;26.960;2022-10-17T18:04:54;101335.70;;;13.94;100.00
11413;BME280;5762;43.256;26.960;2022-10-17T18:07:24;101352.58;;;13.39;100.00
11413;BME280;5762;43.256;26.960;2022-10-17T18:09:53;101353.75;;;12.85;100.00
11413;BME280;5762;43.256;26.960;2022-10-17T18:12:22;101357.81;;;12.93;100.00
11413;BME280;5762;43.256;26.960;2022-10-17T18:14:51;101353.45;;;13.07;100.00
11413;BME280;5762;43.256;26.960;2022-10-17T18:17:20;101362.71;;;12.88;100.00
11413;BME280;5762;43.256;26.960;2022-10-17T18:19:50;101363.56;;;12.81;100.00
11413;BME280;5762;43.256;26.960;2022-10-17T18:22:19;101369.00;;;12.81;100.00
11413;BME280;5762;43.256;26.960;2022-10-17T18:24:48;101369.50;;;12.88;100.00
11413;BME280;5762;43.256;26.960;2022-10-17T18:27:17;101367.88;;;12.90;100.00
11413;BME280;5762;43.256;26.960;2022-10-17T18:29:46;101364.34;;;12.97;100.00
11413;BME280;5762;43.256;26.960;2022-10-17T18:32:16;101362.16;;;13.01;100.00
11413;BME280;5762;43.256;26.960;2022-10-17T18:34:45;101367.88;;;12.85;100.00
11413;BME280;5762;43.256;26.960;2022-10-17T18:37:13;101368.18;;;12.68;100.00
11413;BME280;5762;43.256;26.960;2022-10-17T18:39:43;101369.81;;;12.66;100.00
11413;BME280;5762;43.256;26.960;2022-10-17T18:42:12;101365.73;;;12.61;100.00
11413;BME280;5762;43.256;26.960;2022-10-17T18:44:41;101365.17;;;12.49;100.00
11413;BME280;5762;43.256;26.960;2022-10-17T18:47:10;101371.97;;;12.52;100.00
11413;BME280;5762;43.256;26.960;2022-10-17T18:49:42;101372.78;;;12.52;100.00
11413;BME280;5762;43.256;26.960;2022-10-17T18:52:11;101373.05;;;12.53;100.00
11413;BME280;5762;43.256;26.960;2022-10-17T18:54:46;101372.26;;;12.45;100.00
11413;BME280;5762;43.256;26.960;2022-10-17T18:59:44;101379.58;;;12.39;100.00
11413;BME280;5762;43.256;26.960;2022-10-17T19:02:13;101386.11;;;12.46;100.00
11413;BME280;5762;43.256;26.960;2022-10-17T19:04:42;101387.45;;;12.59;100.00
11413;BME280;5762;43.256;26.960;2022-10-17T19:07:11;101386.63;;;12.53;100.00
11413;BME280;5762;43.256;26.960;2022-10-17T19:09:41;101387.99;;;12.53;100.00
11413;BME280;5762;43.256;26.960;2022-10-17T19:12:10;101387.18;;;12.53;100.00
11413;BME280;5762;43.256;26.960;2022-10-17T19:14:39;101391.27;;;12.60;100.00
11413;BME280;5762;43.256;26.960;2022-10-17T19:17:08;101389.36;;;12.66;100.00
11413;BME280;5762;43.256;26.960;2022-10-17T19:19:37;101395.89;;;12.70;100.00
11413;BME280;5762;43.256;26.960;2022-10-17T19:22:07;101402.95;;;12.66;100.00
11413;BME280;5762;43.256;26.960;2022-10-17T19:24:35;101396.16;;;12.61;100.00
11413;BME280;5762;43.256;26.960;2022-10-17T19:27:05;101389.62;;;12.52;100.00
11413;BME280;5762;43.256;26.960;2022-10-17T19:29:34;101387.73;;;12.42;100.00
11413;BME280;5762;43.256;26.960;2022-10-17T19:32:06;101395.06;;;12.39;100.00
11413;BME280;5762;43.256;26.960;2022-10-17T19:34:35;101392.34;;;12.39;100.00
11413;BME280;5762;43.256;26.960;2022-10-17T19:37:04;101395.05;;;12.34;100.00
11413;BME280;5762;43.256;26.960;2022-10-17T19:39:36;101399.14;;;12.44;100.00
11413;BME280;5762;43.256;26.960;2022-10-17T19:42:05;101392.62;;;12.40;100.00
11413;BME280;5762;43.256;26.960;2022-10-17T19:44:34;101395.05;;;12.34;100.00
11413;BME280;5762;43.256;26.960;2022-10-17T19:47:04;101397.50;;;12.35;100.00
11413;BME280;5762;43.256;26.960;2022-10-17T19:49:33;101398.59;;;12.42;100.00
11413;BME280;5762;43.256;26.960;2022-10-17T19:52:02;101399.66;;;12.49;100.00
11413;BME280;5762;43.256;26.960;2022-10-17T19:54:31;101395.86;;;12.50;100.00
11413;BME280;5762;43.256;26.960;2022-10-17T19:57:00;101395.87;;;12.39;100.00
11413;BME280;5762;43.256;26.960;2022-10-17T19:59:29;101398.05;;;12.40;100.00
11413;BME280;5762;43.256;26.960;2022-10-17T20:01:58;101389.63;;;12.39;100.00
11413;BME280;5762;43.256;26.960;2022-10-17T20:06:57;101391.22;;;12.22;100.00
11413;BME280;5762;43.256;26.960;2022-10-17T20:09:26;101393.66;;;12.24;100.00
11413;BME280;5762;43.256;26.960;2022-10-17T20:11:55;101388.80;;;12.31;100.00
11413;BME280;5762;43.256;26.960;2022-10-17T20:14:24;101390.14;;;12.26;100.00
11413;BME280;5762;43.256;26.960;2022-10-17T20:19:23;101389.32;;;12.13;100.00
11413;BME280;5762;43.256;26.960;2022-10-17T20:21:52;101387.11;;;11.99;100.00
11413;BME280;5762;43.256;26.960;2022-10-17T20:24:21;101386.80;;;11.91;100.00
11413;BME280;5762;43.256;26.960;2022-10-17T20:26:50;101387.06;;;11.89;100.00
11413;BME280;5762;43.256;26.960;2022-10-17T20:29:22;101391.10;;;11.82;100.00
11413;BME280;5762;43.256;26.960;2022-10-17T20:31:51;101393.77;;;11.71;100.00
11413;BME280;5762;43.256;26.960;2022-10-17T20:34:20;101391.59;;;11.71;100.00
11413;BME280;5762;43.256;26.960;2022-10-17T20:36:49;101392.64;;;11.62;100.00
11413;BME280;5762;43.256;26.960;2022-10-17T20:39:18;101391.53;;;11.58;100.00
11413;BME280;5762;43.256;26.960;2022-10-17T20:41:48;101393.13;;;11.52;100.00
11413;BME280;5762;43.256;26.960;2022-10-17T20:44:17;101397.99;;;11.50;100.00
11413;BME280;5762;43.256;26.960;2022-10-17T20:46:46;101398.00;;;11.52;100.00
11413;BME280;5762;43.256;26.960;2022-10-17T20:49:16;101389.02;;;11.47;100.00
11413;BME280;5762;43.256;26.960;2022-10-17T20:51:45;101397.16;;;11.41;100.00
11413;BME280;5762;43.256;26.960;2022-10-17T20:54:14;101395.45;;;11.28;100.00
11413;BME280;5762;43.256;26.960;2022-10-17T20:56:43;101389.16;;;11.20;100.00
11413;BME280;5762;43.256;26.960;2022-10-17T20:59:13;101386.46;;;11.22;100.00
11413;BME280;5762;43.256;26.960;2022-10-17T21:01:42;101392.89;;;11.11;100.00
11413;BME280;5762;43.256;26.960;2022-10-17T21:04:12;101391.83;;;11.15;100.00
11413;BME280;5762;43.256;26.960;2022-10-17T21:06:41;101385.84;;;11.10;100.00
11413;BME280;5762;43.256;26.960;2022-10-17T21:09:10;101385.03;;;11.07;100.00
11413;BME280;5762;43.256;26.960;2022-10-17T21:11:40;101375.45;;;10.94;100.00
11413;BME280;5762;43.256;26.960;2022-10-17T21:14:09;101384.45;;;11.02;100.00
11413;BME280;5762;43.256;26.960;2022-10-17T21:16:39;101386.16;;;11.16;100.00
11413;BME280;5762;43.256;26.960;2022-10-17T21:19:08;101381.86;;;11.23;100.00
11413;BME280;5762;43.256;26.960;2022-10-17T21:21:39;101385.98;;;11.33;100.00